createdAt,value
2023-01-29T00:02:52.823Z,5.10
2023-01-29T00:05:55.943Z,6.03
2023-01-29T00:08:59.246Z,6.15
2023-01-29T00:12:02.461Z,4.75
2023-01-29T00:15:07.097Z,5.75
2023-01-29T00:18:11.883Z,10.50
2023-01-29T00:21:24.684Z,8.90
2023-01-29T00:24:28.883Z,10.68
2023-01-29T00:27:32.268Z,6.50
2023-01-29T00:30:36.660Z,5.82
2023-01-29T00:36:47.005Z,6.07
2023-01-29T00:39:50.963Z,8.63
2023-01-29T00:43:12.747Z,5.88
2023-01-29T00:46:16.666Z,5.95
2023-01-29T00:49:19.982Z,6.68
2023-01-29T00:52:27.102Z,4.30
2023-01-29T00:55:30.476Z,5.72
2023-01-29T00:58:36.950Z,6.72
2023-01-29T01:01:58.946Z,7.70
2023-01-29T01:05:03.939Z,10.23
2023-01-29T01:08:29.826Z,9.65
2023-01-29T01:11:34.600Z,9.00
2023-01-29T01:17:40.583Z,7.47
2023-01-29T01:20:44.580Z,5.13
2023-01-29T01:23:48.313Z,6.30
2023-01-29T01:26:51.508Z,5.72
2023-01-29T01:29:54.703Z,9.45
2023-01-29T01:32:58.385Z,17.77
2023-01-29T01:36:05.086Z,18.63
2023-01-29T01:39:08.478Z,15.50
2023-01-29T01:42:15.039Z,12.70
2023-01-29T01:45:34.177Z,4.28
2023-01-29T01:48:37.832Z,4.30
2023-01-29T01:51:46.090Z,51.57
2023-01-29T01:54:50.489Z,10.65
2023-01-29T01:57:59.032Z,7.45
2023-01-29T02:01:04.634Z,6.18
2023-01-29T02:04:34.070Z,5.60
2023-01-29T02:08:04.645Z,6.55
2023-01-29T02:11:08.618Z,6.75
2023-01-29T02:14:12.511Z,6.80
2023-01-29T02:17:18.416Z,7.05
2023-01-29T02:20:30.013Z,7.78
2023-01-29T02:24:01.163Z,5.80
2023-01-29T02:27:47.407Z,10.70
2023-01-29T02:30:50.638Z,7.93
2023-01-29T02:34:17.798Z,7.20
2023-01-29T02:37:27.897Z,6.20
2023-01-29T02:40:46.654Z,4.10
2023-01-29T02:44:16.883Z,4.45
2023-01-29T02:47:31.715Z,4.78
2023-01-29T02:54:09.461Z,7.30
2023-01-29T02:57:21.855Z,24.60
2023-01-29T03:00:31.678Z,9.35
2023-01-29T03:03:45.936Z,5.70
2023-01-29T03:07:04.407Z,5.50
2023-01-29T03:10:19.545Z,5.32
2023-01-29T03:13:33.517Z,7.25
2023-01-29T03:17:00.668Z,5.20
2023-01-29T03:20:08.691Z,4.22
2023-01-29T03:23:19.448Z,8.32
2023-01-29T03:26:43.357Z,7.43
2023-01-29T03:30:07.941Z,7.07
2023-01-29T03:33:27.127Z,5.40
2023-01-29T03:36:52.768Z,6.32
2023-01-29T03:39:56.610Z,8.80
2023-01-29T03:43:14.493Z,8.63
2023-01-29T03:46:31.996Z,7.70
2023-01-29T03:49:49.618Z,6.82
2023-01-29T03:53:21.036Z,2.97
2023-01-29T03:56:41.332Z,5.65
2023-01-29T04:00:21.923Z,4.78
2023-01-29T04:04:06.981Z,5.30
2023-01-29T04:07:25.074Z,3.45
2023-01-29T04:10:43.499Z,3.92
2023-01-29T04:13:48.293Z,3.63
2023-01-29T04:16:58.626Z,5.35
2023-01-29T04:20:15.720Z,4.30
2023-01-29T04:23:28.803Z,6.03
2023-01-29T04:26:38.329Z,5.85
2023-01-29T04:30:03.351Z,4.95
2023-01-29T04:33:25.370Z,3.00
2023-01-29T04:36:57.503Z,4.53
2023-01-29T04:40:26.359Z,4.40
2023-01-29T04:43:35.176Z,3.50
2023-01-29T04:46:48.785Z,3.20
2023-01-29T04:50:03.662Z,5.10
2023-01-29T04:56:40.582Z,2.97
2023-01-29T04:59:52.357Z,1.90
2023-01-29T05:02:57.301Z,1.83
2023-01-29T05:06:03.079Z,2.58
2023-01-29T05:09:10.669Z,1.63
2023-01-29T05:12:19.230Z,2.15
2023-01-29T05:15:33.537Z,2.10
2023-01-29T05:18:38.663Z,1.90
2023-01-29T05:21:45.647Z,1.60
2023-01-29T05:24:49.383Z,1.08
2023-01-29T05:28:28.740Z,2.00
2023-01-29T05:31:32.911Z,1.17
2023-01-29T05:34:36.849Z,1.40
2023-01-29T05:37:41.111Z,2.80
2023-01-29T05:40:45.066Z,1.77
2023-01-29T05:43:48.977Z,2.97
2023-01-29T05:46:52.436Z,1.77
2023-01-29T05:49:56.077Z,1.90
2023-01-29T05:53:03.032Z,1.73
2023-01-29T05:56:08.080Z,1.83
2023-01-29T05:59:12.113Z,2.78
2023-01-29T06:02:15.332Z,3.87
2023-01-29T06:05:19.225Z,1.67
2023-01-29T06:08:22.429Z,2.37
2023-01-29T06:11:25.977Z,2.40
2023-01-29T06:14:32.992Z,2.03
2023-01-29T06:17:36.836Z,3.08
2023-01-29T06:20:42.036Z,3.20
2023-01-29T06:23:45.476Z,2.80
2023-01-29T06:26:51.674Z,2.70
2023-01-29T06:29:55.165Z,2.63
2023-01-29T06:32:59.873Z,2.50
2023-01-29T06:39:07.481Z,0.75
2023-01-29T06:42:12.267Z,1.55
2023-01-29T06:45:20.184Z,1.42
2023-01-29T06:48:26.144Z,10.00
2023-01-29T06:51:32.025Z,2.75
2023-01-29T06:54:38.040Z,2.28
2023-01-29T06:57:43.041Z,4.40
2023-01-29T07:00:46.862Z,4.13
2023-01-29T07:03:53.398Z,3.25
2023-01-29T07:07:00.897Z,3.78
2023-01-29T07:10:06.456Z,2.08
2023-01-29T07:13:10.010Z,2.25
2023-01-29T07:16:13.638Z,3.47
2023-01-29T07:19:17.995Z,3.15
2023-01-29T07:22:21.190Z,2.17
2023-01-29T07:25:25.112Z,0.85
2023-01-29T07:28:28.277Z,3.15
2023-01-29T07:31:31.683Z,3.90
2023-01-29T07:34:34.918Z,4.22
2023-01-29T07:37:38.196Z,3.65
2023-01-29T07:40:41.247Z,2.83
2023-01-29T07:43:44.319Z,3.47
2023-01-29T07:46:47.584Z,3.70
2023-01-29T07:49:51.976Z,4.00
2023-01-29T07:52:58.126Z,21.13
2023-01-29T07:56:01.269Z,2.97
2023-01-29T07:59:04.575Z,2.55
2023-01-29T08:02:07.759Z,2.03
2023-01-29T08:05:10.912Z,2.85
2023-01-29T08:08:14.371Z,2.25
2023-01-29T08:11:17.544Z,1.45
2023-01-29T08:14:20.756Z,3.00
2023-01-29T08:17:23.881Z,3.33
2023-01-29T08:20:27.188Z,1.90
2023-01-29T08:23:31.177Z,3.55
2023-01-29T08:26:34.385Z,5.07
2023-01-29T08:29:37.589Z,3.10
2023-01-29T08:32:41.073Z,4.90
2023-01-29T08:35:44.276Z,4.78
2023-01-29T08:38:47.560Z,5.43
2023-01-29T08:41:50.805Z,5.93
2023-01-29T08:44:54.051Z,8.00
2023-01-29T08:47:57.144Z,44.90
2023-01-29T08:51:12.786Z,14.20
2023-01-29T08:54:17.147Z,10.73
2023-01-29T08:57:20.442Z,12.13
2023-01-29T09:00:24.374Z,11.52
2023-01-29T09:03:29.053Z,14.30
2023-01-29T09:06:35.819Z,13.13
2023-01-29T09:09:39.679Z,12.75
2023-01-29T09:15:48.516Z,9.48
2023-01-29T09:18:52.294Z,9.25
2023-01-29T09:21:57.341Z,11.55
2023-01-29T09:25:01.641Z,9.60
2023-01-29T09:28:07.554Z,8.65
2023-01-29T09:31:12.946Z,9.52
2023-01-29T09:34:16.822Z,15.68
2023-01-29T09:37:23.876Z,12.10
2023-01-29T09:40:31.838Z,14.25
2023-01-29T09:43:50.328Z,15.02
2023-01-29T09:46:56.478Z,18.27
2023-01-29T09:50:02.495Z,18.77
2023-01-29T09:53:30.712Z,15.43
2023-01-29T09:56:37.123Z,10.20
2023-01-29T09:59:42.222Z,9.52
2023-01-29T10:02:55.777Z,10.85
2023-01-29T10:06:19.668Z,10.65
2023-01-29T10:09:53.323Z,10.80
2023-01-29T10:13:15.473Z,8.30
2023-01-29T10:16:36.724Z,6.22
2023-01-29T10:19:55.197Z,7.15
2023-01-29T10:23:19.446Z,6.70
2023-01-29T10:26:28.660Z,9.20
2023-01-29T10:29:42.557Z,8.23
2023-01-29T10:32:51.143Z,19.77
2023-01-29T10:36:07.219Z,33.13
2023-01-29T10:39:19.213Z,31.83
2023-01-29T10:42:41.793Z,34.78
2023-01-29T10:46:03.492Z,34.70
2023-01-29T10:49:31.920Z,27.35
2023-01-29T10:53:04.465Z,31.08
2023-01-29T10:56:23.339Z,12.25
2023-01-29T11:00:03.235Z,9.95
2023-01-29T11:03:27.911Z,9.00
2023-01-29T11:06:40.971Z,6.82
2023-01-29T11:10:09.243Z,9.20
2023-01-29T11:13:16.479Z,18.00
2023-01-29T11:16:19.793Z,12.10
2023-01-29T11:19:44.565Z,7.50
2023-01-29T11:22:54.952Z,8.63
2023-01-29T11:25:59.900Z,10.57
2023-01-29T11:29:02.979Z,5.95
2023-01-29T11:32:14.950Z,9.90
2023-01-29T11:35:18.428Z,5.82
2023-01-29T11:38:31.101Z,6.20
2023-01-29T11:41:44.647Z,6.97
2023-01-29T11:44:48.743Z,5.13
2023-01-29T11:48:01.531Z,6.85
2023-01-29T11:51:06.595Z,6.95
2023-01-29T11:54:17.998Z,7.90
2023-01-29T11:57:37.150Z,6.88
2023-01-29T12:00:43.208Z,7.47
2023-01-29T12:03:55.155Z,6.95
2023-01-29T12:06:59.853Z,6.72
2023-01-29T12:13:11.768Z,6.13
2023-01-29T12:16:54.755Z,3.15
2023-01-29T12:20:05.546Z,4.28
2023-01-29T12:23:24.442Z,5.25
2023-01-29T12:26:39.232Z,2.67
2023-01-29T12:30:19.719Z,6.13
2023-01-29T12:33:48.950Z,4.63
2023-01-29T12:37:12.171Z,4.13
2023-01-29T12:40:17.590Z,4.38
2023-01-29T12:43:31.864Z,3.83
2023-01-29T12:46:43.365Z,4.05
2023-01-29T12:49:55.367Z,3.92
2023-01-29T12:53:08.175Z,3.25
2023-01-29T12:56:17.100Z,4.20
2023-01-29T12:59:45.891Z,4.53
2023-01-29T13:03:22.602Z,4.35
2023-01-29T13:06:42.283Z,4.85
2023-01-29T13:09:54.678Z,5.57
2023-01-29T13:13:23.374Z,5.72
2023-01-29T13:16:32.917Z,6.20
2023-01-29T13:19:46.284Z,6.97
2023-01-29T13:22:52.762Z,6.90
2023-01-29T13:25:56.366Z,5.53
2023-01-29T13:29:04.101Z,9.48
2023-01-29T13:32:11.365Z,5.03
2023-01-29T13:35:17.493Z,5.72
2023-01-29T13:38:35.251Z,4.70
2023-01-29T13:41:45.412Z,6.35
2023-01-29T13:45:02.201Z,5.75
2023-01-29T13:48:29.864Z,4.20
2023-01-29T13:51:37.406Z,4.35
2023-01-29T13:54:41.029Z,4.90
2023-01-29T13:57:51.611Z,5.03
2023-01-29T14:00:57.449Z,3.58
2023-01-29T14:04:15.875Z,3.75
2023-01-29T14:07:48.017Z,4.95
2023-01-29T14:11:13.567Z,5.68
2023-01-29T14:15:01.907Z,8.70
2023-01-29T14:18:11.232Z,7.55
2023-01-29T14:21:17.382Z,7.50
2023-01-29T14:24:29.393Z,3.95
2023-01-29T14:27:33.652Z,8.88
2023-01-29T14:30:41.707Z,10.80
2023-01-29T14:33:46.071Z,10.32
2023-01-29T14:36:56.613Z,8.25
2023-01-29T14:40:13.983Z,7.55
2023-01-29T14:43:21.627Z,5.70
2023-01-29T14:46:36.586Z,6.30
2023-01-29T14:49:57.786Z,7.47
2023-01-29T14:53:10.129Z,6.85
2023-01-29T14:56:18.839Z,6.10
2023-01-29T14:59:44.731Z,6.25
2023-01-29T15:02:59.831Z,5.18
2023-01-29T15:06:07.298Z,5.65
2023-01-29T15:09:35.780Z,5.47
2023-01-29T15:13:04.148Z,6.22
2023-01-29T15:16:15.817Z,5.50
2023-01-29T15:19:41.107Z,3.38
2023-01-29T15:22:45.298Z,3.88
2023-01-29T15:25:51.978Z,5.95
2023-01-29T15:29:03.502Z,4.90
2023-01-29T15:32:08.732Z,4.68
2023-01-29T15:38:31.053Z,4.82
2023-01-29T15:41:34.258Z,4.15
2023-01-29T15:44:38.245Z,5.97
2023-01-29T15:47:41.425Z,4.35
2023-01-29T15:50:46.195Z,3.33
2023-01-29T15:53:56.644Z,3.95
2023-01-29T15:57:00.674Z,7.75
2023-01-29T16:00:05.806Z,5.55
2023-01-29T16:03:17.467Z,5.40
2023-01-29T16:06:22.437Z,5.55
2023-01-29T16:09:27.591Z,4.45
2023-01-29T16:12:31.671Z,6.35
2023-01-29T16:15:40.894Z,5.78
2023-01-29T16:18:58.811Z,6.97
2023-01-29T16:22:05.672Z,7.32
2023-01-29T16:25:14.201Z,6.65
2023-01-29T16:28:19.584Z,10.98
2023-01-29T16:31:29.722Z,9.32
2023-01-29T16:34:39.373Z,10.60
2023-01-29T16:37:43.591Z,11.20
2023-01-29T16:41:26.737Z,10.80
2023-01-29T16:44:36.317Z,13.68
2023-01-29T16:47:42.192Z,9.18
2023-01-29T16:50:54.710Z,9.43
2023-01-29T16:54:08.427Z,6.95
2023-01-29T16:57:25.449Z,7.28
2023-01-29T17:00:30.735Z,9.48
2023-01-29T17:03:36.321Z,4.65
2023-01-29T17:06:42.415Z,4.50
2023-01-29T17:09:45.589Z,3.70
2023-01-29T17:13:10.988Z,3.78
2023-01-29T17:16:27.481Z,4.75
2023-01-29T17:19:30.930Z,5.22
2023-01-29T17:22:33.994Z,6.45
2023-01-29T17:25:37.462Z,4.50
2023-01-29T17:28:41.430Z,4.60
2023-01-29T17:31:45.020Z,4.60
2023-01-29T17:34:48.228Z,4.28
2023-01-29T17:37:51.485Z,4.22
2023-01-29T17:41:07.042Z,5.13
2023-01-29T17:44:10.114Z,5.28
2023-01-29T17:47:17.465Z,6.60
2023-01-29T17:50:28.027Z,5.25
2023-01-29T17:53:44.888Z,5.10
2023-01-29T17:56:49.609Z,4.03
2023-01-29T17:59:52.828Z,4.05
2023-01-29T18:02:56.606Z,5.50
2023-01-29T18:06:00.002Z,4.38
2023-01-29T18:09:04.312Z,4.83
2023-01-29T18:15:13.436Z,4.35
2023-01-29T18:18:23.363Z,4.55
2023-01-29T18:21:26.397Z,5.10
2023-01-29T18:24:29.570Z,3.85
2023-01-29T18:27:32.678Z,2.30
2023-01-29T18:30:35.994Z,5.55
2023-01-29T18:33:39.114Z,7.10
2023-01-29T18:36:47.283Z,7.00
2023-01-29T18:39:50.489Z,6.72
2023-01-29T18:42:53.735Z,4.67
2023-01-29T18:46:00.601Z,6.83
2023-01-29T18:49:03.861Z,7.35
2023-01-29T18:52:08.090Z,5.10
2023-01-29T18:58:29.402Z,5.20
2023-01-29T19:01:37.730Z,4.75
2023-01-29T19:04:40.843Z,4.20
2023-01-29T19:07:43.970Z,9.27
2023-01-29T19:10:47.255Z,6.77
2023-01-29T19:13:50.505Z,6.17
2023-01-29T19:16:53.840Z,7.70
2023-01-29T19:20:02.578Z,9.50
2023-01-29T19:23:06.157Z,9.68
2023-01-29T19:26:11.245Z,23.30
2023-01-29T19:29:15.250Z,19.88
2023-01-29T19:32:18.302Z,20.40
2023-01-29T19:35:21.352Z,24.67
2023-01-29T19:38:24.941Z,27.67
2023-01-29T19:41:28.175Z,21.58
2023-01-29T19:44:31.325Z,14.98
2023-01-29T19:47:42.956Z,13.27
2023-01-29T19:50:55.515Z,18.35
2023-01-29T19:53:58.674Z,11.98
2023-01-29T19:57:01.847Z,15.77
2023-01-29T20:00:06.374Z,12.67
2023-01-29T20:03:09.477Z,5.53
2023-01-29T20:06:12.823Z,2.90
2023-01-29T20:09:15.992Z,3.05
2023-01-29T20:12:19.302Z,7.63
2023-01-29T20:15:23.116Z,7.07
2023-01-29T20:18:26.198Z,2.78
2023-01-29T20:21:29.353Z,2.50
2023-01-29T20:24:35.174Z,5.60
2023-01-29T20:27:38.283Z,7.00
2023-01-29T20:30:42.415Z,3.57
2023-01-29T20:36:48.424Z,4.00
2023-01-29T20:39:51.515Z,5.57
2023-01-29T20:42:54.928Z,3.23
2023-01-29T20:45:59.003Z,1.98
2023-01-29T20:49:02.876Z,3.05
2023-01-29T20:52:07.332Z,2.33
2023-01-29T20:55:12.419Z,3.88
2023-01-29T20:58:15.810Z,3.28
2023-01-29T21:01:20.992Z,2.25
2023-01-29T21:04:24.321Z,4.35
2023-01-29T21:07:27.488Z,4.35
2023-01-29T21:10:30.572Z,3.40
2023-01-29T21:13:33.820Z,5.30
2023-01-29T21:16:37.014Z,4.95
2023-01-29T21:19:40.163Z,5.53
2023-01-29T21:22:44.552Z,3.97
2023-01-29T21:25:48.704Z,4.35
2023-01-29T21:28:52.049Z,5.15
2023-01-29T21:31:55.131Z,6.03
2023-01-29T21:34:58.362Z,6.70
2023-01-29T21:38:01.444Z,4.47
2023-01-29T21:41:07.803Z,6.60
2023-01-29T21:44:11.396Z,6.63
2023-01-29T21:47:14.593Z,4.82
2023-01-29T21:50:18.294Z,4.28
2023-01-29T21:53:21.594Z,2.53
2023-01-29T21:56:24.832Z,2.70
2023-01-29T21:59:27.909Z,3.10
2023-01-29T22:02:34.050Z,4.37
2023-01-29T22:05:37.152Z,3.50
2023-01-29T22:08:40.279Z,5.23
2023-01-29T22:11:43.421Z,6.47
2023-01-29T22:14:47.956Z,5.30
2023-01-29T22:17:51.501Z,5.53
2023-01-29T22:20:55.863Z,5.97
2023-01-29T22:23:59.002Z,5.70
2023-01-29T22:27:02.296Z,4.23
2023-01-29T22:30:06.464Z,5.10
2023-01-29T22:33:11.088Z,4.93
2023-01-29T22:36:14.304Z,5.20
2023-01-29T22:39:17.430Z,5.25
2023-01-29T22:42:21.444Z,3.87
2023-01-29T22:48:29.243Z,4.40
2023-01-29T22:51:32.412Z,3.70
2023-01-29T22:54:35.548Z,3.57
2023-01-29T22:57:39.421Z,3.77
2023-01-29T23:03:47.140Z,5.73
2023-01-29T23:06:51.027Z,3.30
2023-01-29T23:09:54.967Z,4.53
2023-01-29T23:12:58.648Z,10.38
2023-01-29T23:16:02.724Z,9.43
2023-01-29T23:19:06.236Z,11.83
2023-01-29T23:22:09.776Z,14.43
2023-01-29T23:25:13.262Z,15.30
2023-01-29T23:28:17.730Z,20.63
2023-01-29T23:31:21.366Z,14.17
2023-01-29T23:34:24.660Z,21.85
2023-01-29T23:37:28.379Z,21.27
2023-01-29T23:40:32.264Z,18.92
2023-01-29T23:43:36.221Z,18.13
2023-01-29T23:46:43.144Z,8.90
2023-01-29T23:49:47.010Z,9.17
2023-01-29T23:52:50.638Z,8.63
2023-01-29T23:56:02.173Z,9.80
2023-01-29T23:59:06.995Z,4.23
